createdAt,value
2018-06-14T00:02:09.838Z,97.20
2018-06-14T00:05:34.704Z,97.00
2018-06-14T00:08:59.366Z,96.80
2018-06-14T00:12:24.091Z,96.20
2018-06-14T00:15:48.723Z,95.10
2018-06-14T00:19:13.588Z,95.30
2018-06-14T00:22:38.340Z,96.00
2018-06-14T00:26:03.034Z,96.70
2018-06-14T00:29:27.760Z,96.90
2018-06-14T00:32:52.431Z,97.40
2018-06-14T00:36:17.162Z,97.60
2018-06-14T00:39:41.807Z,97.60
2018-06-14T00:43:06.528Z,97.30
2018-06-14T00:49:55.647Z,97.90
2018-06-14T00:53:20.344Z,97.20
2018-06-14T00:57:02.232Z,96.80
2018-06-14T01:00:26.944Z,96.90
2018-06-14T01:03:51.695Z,97.30
2018-06-14T01:07:16.534Z,97.90
2018-06-14T01:10:41.221Z,98.20
2018-06-14T01:14:06.119Z,98.50
2018-06-14T01:17:30.892Z,98.10
2018-06-14T01:20:55.571Z,98.90
2018-06-14T01:24:20.248Z,98.80
2018-06-14T01:27:44.989Z,98.70
2018-06-14T01:31:09.707Z,99.20
2018-06-14T01:36:03.544Z,98.80
2018-06-14T01:39:28.290Z,99.00
2018-06-14T01:42:52.996Z,98.40
2018-06-14T01:46:17.778Z,98.90
2018-06-14T01:49:42.516Z,99.00
2018-06-14T01:53:07.184Z,98.90
2018-06-14T01:56:31.888Z,99.30
2018-06-14T01:59:56.561Z,99.50
2018-06-14T02:03:21.289Z,99.50
2018-06-14T02:06:45.949Z,99.60
2018-06-14T02:10:10.634Z,99.70
2018-06-14T02:13:35.278Z,99.60
2018-06-14T02:16:59.974Z,99.60
2018-06-14T02:20:25.278Z,99.20
2018-06-14T02:23:49.955Z,99.70
2018-06-14T02:27:14.665Z,99.40
2018-06-14T02:34:03.623Z,99.60
2018-06-14T02:37:28.470Z,99.90
2018-06-14T02:40:53.894Z,99.40
2018-06-14T02:44:18.645Z,99.40
2018-06-14T02:47:43.259Z,99.60
2018-06-14T02:54:33.217Z,99.90
2018-06-14T02:57:57.898Z,99.90
2018-06-14T03:01:22.561Z,99.90
2018-06-14T03:04:47.277Z,99.90
2018-06-14T03:08:11.890Z,99.90
2018-06-14T03:11:36.578Z,99.90
2018-06-14T03:15:01.416Z,99.90
2018-06-14T03:21:50.398Z,99.90
2018-06-14T03:25:15.037Z,99.90
2018-06-14T03:28:39.887Z,99.90
2018-06-14T03:32:04.634Z,99.90
2018-06-14T03:35:29.394Z,99.90
2018-06-14T03:38:54.147Z,99.90
2018-06-14T03:42:18.826Z,99.90
2018-06-14T03:45:43.497Z,99.90
2018-06-14T03:49:08.123Z,99.90
2018-06-14T03:52:32.805Z,99.90
2018-06-14T03:55:57.478Z,99.90
2018-06-14T03:59:22.092Z,99.90
2018-06-14T04:02:46.784Z,99.90
2018-06-14T04:06:11.429Z,99.90
2018-06-14T04:09:36.098Z,99.90
2018-06-14T04:13:00.783Z,99.90
2018-06-14T04:16:26.249Z,99.90
2018-06-14T04:19:50.885Z,99.90
2018-06-14T04:23:15.625Z,99.90
2018-06-14T04:26:40.763Z,99.60
2018-06-14T04:33:29.850Z,98.80
2018-06-14T04:36:54.601Z,98.50
2018-06-14T04:40:19.407Z,98.70
2018-06-14T04:43:44.555Z,98.50
2018-06-14T04:47:09.279Z,98.30
2018-06-14T04:50:34.147Z,97.90
2018-06-14T04:53:58.853Z,97.40
2018-06-14T04:57:23.554Z,97.20
2018-06-14T05:00:48.287Z,96.90
2018-06-14T05:04:13.017Z,96.30
2018-06-14T05:11:02.131Z,96.50
2018-06-14T05:17:51.098Z,96.10
2018-06-14T05:21:15.919Z,96.90
2018-06-14T05:24:40.581Z,95.80
2018-06-14T05:28:05.453Z,95.90
2018-06-14T05:31:30.202Z,95.60
2018-06-14T05:34:54.960Z,95.80
2018-06-14T05:41:44.053Z,95.70
2018-06-14T05:45:08.805Z,95.60
2018-06-14T05:48:33.511Z,95.50
2018-06-14T05:51:58.305Z,95.20
2018-06-14T05:55:23.012Z,94.50
2018-06-14T05:58:47.681Z,94.70
2018-06-14T06:02:12.306Z,94.40
2018-06-14T06:05:37.131Z,94.10
2018-06-14T06:09:02.013Z,93.70
2018-06-14T06:15:51.074Z,94.10
2018-06-14T06:19:15.805Z,93.70
2018-06-14T06:26:05.280Z,93.40
2018-06-14T06:29:30.149Z,92.50
2018-06-14T06:32:54.739Z,92.80
2018-06-14T06:36:19.535Z,92.50
2018-06-14T06:39:44.403Z,91.90
2018-06-14T06:43:10.225Z,92.20
2018-06-14T06:46:35.052Z,91.80
2018-06-14T06:50:00.091Z,91.20
2018-06-14T06:53:25.148Z,92.10
2018-06-14T06:56:49.719Z,90.90
2018-06-14T07:00:14.654Z,90.60
2018-06-14T07:03:39.436Z,90.80
2018-06-14T07:07:04.215Z,90.30
2018-06-14T07:10:30.084Z,90.50
2018-06-14T07:13:55.094Z,90.30
2018-06-14T07:17:19.871Z,91.10
2018-06-14T07:20:45.250Z,90.40
2018-06-14T07:27:34.260Z,89.90
2018-06-14T07:30:59.045Z,89.60
2018-06-14T07:34:25.057Z,88.20
2018-06-14T07:37:49.819Z,87.70
2018-06-14T07:41:16.857Z,86.30
2018-06-14T07:44:43.043Z,85.00
2018-06-14T07:48:08.513Z,84.70
2018-06-14T07:51:34.113Z,80.90
2018-06-14T07:54:59.958Z,80.30
2018-06-14T07:58:24.741Z,78.10
2018-06-14T08:01:49.477Z,77.80
2018-06-14T08:05:15.089Z,76.80
2018-06-14T08:08:39.905Z,75.60
2018-06-14T08:12:04.783Z,75.30
2018-06-14T08:15:29.506Z,73.80
2018-06-14T08:18:54.488Z,69.70
2018-06-14T08:25:44.430Z,68.80
2018-06-14T08:29:09.151Z,68.70
2018-06-14T08:32:34.702Z,68.20
2018-06-14T08:39:24.441Z,69.10
2018-06-14T08:46:13.589Z,69.50
2018-06-14T08:53:02.801Z,70.40
2018-06-14T08:59:51.854Z,71.20
2018-06-14T09:03:16.737Z,69.60
2018-06-14T09:06:42.654Z,70.90
2018-06-14T09:10:07.556Z,71.10
2018-06-14T09:13:32.273Z,70.70
2018-06-14T09:16:56.993Z,70.30
2018-06-14T09:20:21.655Z,71.60
2018-06-14T09:23:46.393Z,68.40
2018-06-14T09:27:11.125Z,66.50
2018-06-14T09:30:35.871Z,66.80
2018-06-14T09:34:00.615Z,66.60
2018-06-14T09:37:25.359Z,65.30
2018-06-14T09:40:50.084Z,65.20
2018-06-14T09:44:14.760Z,63.00
2018-06-14T09:47:39.643Z,63.00
2018-06-14T09:51:05.480Z,63.80
2018-06-14T09:54:30.308Z,63.80
2018-06-14T09:57:55.253Z,62.30
2018-06-14T10:01:19.962Z,61.70
2018-06-14T10:04:44.668Z,60.60
2018-06-14T10:11:33.696Z,63.00
2018-06-14T10:14:58.337Z,63.40
2018-06-14T10:18:23.325Z,63.70
2018-06-14T10:21:48.061Z,63.30
2018-06-14T10:25:12.871Z,63.40
2018-06-14T10:28:37.518Z,62.50
2018-06-14T10:32:02.191Z,63.70
2018-06-14T10:35:26.855Z,61.70
2018-06-14T10:38:51.717Z,61.30
2018-06-14T10:42:16.420Z,58.40
2018-06-14T10:45:41.182Z,59.20
2018-06-14T10:49:05.864Z,59.20
2018-06-14T10:52:30.963Z,56.70
2018-06-14T10:55:55.661Z,59.40
2018-06-14T11:07:19.336Z,61.20
2018-06-14T11:10:44.437Z,61.60
2018-06-14T11:14:10.453Z,61.50
2018-06-14T11:17:35.145Z,59.10
2018-06-14T11:20:59.994Z,58.50
2018-06-14T11:24:24.752Z,56.10
2018-06-14T11:27:49.491Z,55.80
2018-06-14T11:31:14.204Z,56.50
2018-06-14T11:34:41.578Z,55.80
2018-06-14T11:38:07.815Z,56.00
2018-06-14T11:44:57.110Z,53.60
2018-06-14T11:48:21.887Z,54.20
2018-06-14T11:51:46.587Z,53.60
2018-06-14T11:55:11.381Z,53.80
2018-06-14T11:58:36.368Z,53.70
2018-06-14T12:02:01.133Z,54.90
2018-06-14T12:05:25.787Z,53.60
2018-06-14T12:08:50.560Z,53.50
2018-06-14T12:12:16.734Z,54.10
2018-06-14T12:15:41.450Z,54.10
2018-06-14T12:19:06.183Z,54.40
2018-06-14T12:22:30.898Z,52.40
2018-06-14T12:25:55.544Z,50.90
2018-06-14T12:32:44.755Z,49.90
2018-06-14T12:36:09.559Z,49.30
2018-06-14T12:39:34.330Z,49.50
2018-06-14T12:42:59.129Z,50.40
2018-06-14T12:46:23.830Z,49.90
2018-06-14T12:49:49.638Z,50.10
2018-06-14T12:53:17.401Z,48.20
2018-06-14T12:56:43.265Z,49.20
2018-06-14T13:00:09.364Z,48.70
2018-06-14T13:03:35.721Z,49.40
2018-06-14T13:07:00.890Z,49.80
2018-06-14T13:10:26.839Z,49.00
2018-06-14T13:13:53.695Z,48.70
2018-06-14T13:17:18.626Z,47.30
2018-06-14T13:20:43.440Z,47.40
2018-06-14T13:24:08.918Z,47.20
2018-06-14T13:30:59.224Z,46.90
2018-06-14T13:34:23.849Z,47.20
2018-06-14T13:41:15.294Z,50.50
2018-06-14T13:44:40.117Z,50.10
2018-06-14T13:48:04.944Z,50.60
2018-06-14T13:51:29.664Z,49.40
2018-06-14T13:54:54.391Z,48.40
2018-06-14T14:06:18.391Z,47.20
2018-06-14T14:09:43.378Z,46.50
2018-06-14T14:13:08.129Z,46.40
2018-06-14T14:16:35.998Z,46.50
2018-06-14T14:20:00.809Z,47.40
2018-06-14T14:23:25.815Z,48.80
2018-06-14T14:26:50.516Z,49.60
2018-06-14T14:30:16.217Z,50.10
2018-06-14T14:33:41.358Z,50.60
2018-06-14T14:37:06.372Z,50.50
2018-06-14T14:40:31.164Z,49.20
2018-06-14T14:47:20.282Z,47.90
2018-06-14T14:50:45.164Z,48.00
2018-06-14T14:54:09.941Z,47.00
2018-06-14T14:57:34.797Z,44.40
2018-06-14T15:00:59.523Z,43.60
2018-06-14T15:04:24.324Z,44.10
2018-06-14T15:07:49.156Z,43.60
2018-06-14T15:11:14.074Z,43.90
2018-06-14T15:14:38.872Z,42.30
2018-06-14T15:21:28.052Z,41.50
2018-06-14T15:24:53.030Z,41.50
2018-06-14T15:28:17.751Z,42.40
2018-06-14T15:35:07.006Z,42.80
2018-06-14T15:41:56.238Z,42.10
2018-06-14T15:45:20.942Z,41.90
2018-06-14T15:48:45.743Z,41.20
2018-06-14T15:52:10.597Z,40.30
2018-06-14T15:56:42.675Z,40.50
2018-06-14T16:00:07.417Z,40.00
2018-06-14T16:03:32.225Z,40.10
2018-06-14T16:06:57.067Z,39.80
2018-06-14T16:10:21.703Z,40.50
2018-06-14T16:13:46.374Z,40.20
2018-06-14T16:17:11.011Z,38.80
2018-06-14T16:20:35.709Z,38.30
2018-06-14T16:24:00.385Z,39.10
2018-06-14T16:27:25.057Z,39.00
2018-06-14T16:30:49.860Z,40.70
2018-06-14T16:34:14.519Z,38.70
2018-06-14T16:37:39.436Z,38.80
2018-06-14T16:41:04.088Z,37.50
2018-06-14T16:44:28.836Z,38.10
2018-06-14T16:47:53.463Z,36.60
2018-06-14T16:51:18.274Z,37.40
2018-06-14T16:58:07.453Z,38.40
2018-06-14T17:01:32.247Z,38.50
2018-06-14T17:04:57.062Z,36.80
2018-06-14T17:08:21.732Z,37.60
2018-06-14T17:11:46.434Z,36.90
2018-06-14T17:15:11.142Z,37.80
2018-06-14T17:22:00.166Z,38.70
2018-06-14T17:25:24.913Z,38.30
2018-06-14T17:28:49.614Z,37.50
2018-06-14T17:32:14.236Z,38.00
2018-06-14T17:35:39.123Z,38.10
2018-06-14T17:39:04.182Z,38.60
2018-06-14T17:45:53.290Z,40.00
2018-06-14T17:49:18.279Z,40.70
2018-06-14T17:52:43.101Z,41.20
2018-06-14T17:56:08.064Z,41.40
2018-06-14T17:59:32.810Z,42.60
2018-06-14T18:02:57.684Z,42.40
2018-06-14T18:06:22.602Z,43.20
2018-06-14T18:14:18.497Z,43.80
2018-06-14T18:17:43.437Z,43.60
2018-06-14T18:24:33.507Z,44.90
2018-06-14T18:27:58.529Z,45.00
2018-06-14T18:31:23.487Z,44.30
2018-06-14T18:34:49.461Z,45.60
2018-06-14T18:38:14.336Z,45.00
2018-06-14T18:41:39.290Z,47.00
2018-06-14T18:45:04.119Z,50.30
2018-06-14T18:51:53.298Z,52.10
2018-06-14T18:55:18.143Z,53.30
2018-06-14T18:58:42.910Z,55.00
2018-06-14T19:02:07.645Z,55.70
2018-06-14T19:05:32.465Z,56.20
2018-06-14T19:08:57.347Z,57.10
2018-06-14T19:12:22.534Z,58.30
2018-06-14T19:15:47.383Z,58.40
2018-06-14T19:19:12.112Z,59.20
2018-06-14T19:22:36.934Z,60.40
2018-06-14T19:26:01.625Z,60.80
2018-06-14T19:29:26.311Z,61.80
2018-06-14T19:32:51.267Z,62.70
2018-06-14T19:36:16.101Z,63.30
2018-06-14T19:39:40.814Z,63.30
2018-06-14T19:43:05.840Z,63.80
2018-06-14T19:46:30.629Z,64.20
2018-06-14T19:49:55.327Z,65.40
2018-06-14T19:53:20.022Z,65.40
2018-06-14T19:56:44.824Z,65.50
2018-06-14T20:03:33.995Z,66.70
2018-06-14T20:06:58.635Z,66.70
2018-06-14T20:10:23.314Z,66.60
2018-06-14T20:13:47.958Z,67.10
2018-06-14T20:17:12.734Z,67.20
2018-06-14T20:20:38.183Z,67.50
2018-06-14T20:24:04.488Z,67.40
2018-06-14T20:27:30.381Z,67.80
2018-06-14T20:30:55.749Z,68.00
2018-06-14T20:37:48.770Z,68.30
2018-06-14T20:41:14.290Z,68.20
2018-06-14T20:44:41.164Z,69.10
2018-06-14T20:48:06.558Z,69.00
2018-06-14T20:51:31.840Z,69.80
2018-06-14T20:54:58.090Z,69.10
2018-06-14T20:58:23.329Z,69.10
2018-06-14T21:01:48.028Z,69.90
2018-06-14T21:05:12.685Z,70.20
2018-06-14T21:08:37.570Z,70.20
2018-06-14T21:18:51.069Z,70.40
2018-06-14T21:22:15.852Z,70.30
2018-06-14T21:25:40.573Z,71.00
2018-06-14T21:29:05.249Z,70.70
2018-06-14T21:32:30.134Z,71.20
2018-06-14T21:35:54.833Z,71.70
2018-06-14T21:39:19.479Z,72.10
2018-06-14T21:42:44.176Z,73.20
2018-06-14T21:49:33.231Z,74.40
2018-06-14T21:52:57.955Z,75.60
2018-06-14T21:59:47.199Z,76.70
2018-06-14T22:03:17.431Z,77.20
2018-06-14T22:06:44.838Z,77.30
2018-06-14T22:13:34.764Z,76.50
2018-06-14T22:17:01.002Z,76.40
2018-06-14T22:20:26.283Z,77.20
2018-06-14T22:23:52.652Z,77.10
2018-06-14T22:27:18.301Z,77.80
2018-06-14T22:30:43.537Z,78.10
2018-06-14T22:34:25.699Z,78.10
2018-06-14T22:41:15.374Z,79.40
2018-06-14T22:48:05.333Z,79.40
2018-06-14T22:55:10.508Z,79.40
2018-06-14T22:58:35.328Z,80.20
2018-06-14T23:02:00.034Z,80.70
2018-06-14T23:05:24.634Z,81.80
2018-06-14T23:08:49.391Z,81.00
2018-06-14T23:12:14.082Z,81.10
2018-06-14T23:15:38.870Z,80.90
2018-06-14T23:19:03.599Z,83.30
2018-06-14T23:22:28.294Z,83.50
2018-06-14T23:25:52.939Z,83.70
2018-06-14T23:29:17.638Z,84.20
2018-06-14T23:32:42.309Z,84.60
2018-06-14T23:36:06.966Z,84.50
2018-06-14T23:39:31.563Z,85.50
2018-06-14T23:42:56.166Z,85.90
2018-06-14T23:46:20.787Z,86.40
2018-06-14T23:49:45.379Z,87.00
2018-06-14T23:53:10.073Z,87.60
2018-06-14T23:56:34.760Z,88.20
2018-06-14T23:59:59.360Z,88.20
